Govan, Canada
Current Conditions -  °F | °C
As of 4:00 AM on Sunday 21 Dec 2014 (Local Time) from CYQR Reporting Station
Few Clouds Few Clouds  
Wind Chill:   Ceiling: Unl
Heat Index: 14°   Visibility: 15mi
Dew Point: 12°   Wind: 9mph
Humidity: 93%   Direction: 110°ESE
Pressure: 29.54"   Gusts: NA
Location:  51.32°N, 105°W
Report Text: CYQR 211000Z 11008KT 15SM FEW001 M10/M11 A2954 RMK SF1 SLP039
Loading
Personal Weather Stations






























Interactive Weather Map New forecast layout! Learn more

10-Day Weather Forecast

Advertisements
Track Severe Weather on mobile